• Join FlightAware (Why Join?)
  • Login
  • US Flag 
 
07:35PM EST


 

Airport Tracker/Info


-or-


 

Live Flight TrackerFlight Track Log ✈ KAP5 ✈ 01-Jul-2013 ✈ KOGS - KALB

Flight Track Log - Related Links

Times and Time Zones

All times are in EDT time to prevent confusion due to time zone crossing. See the KAP5 flight status page for this flight to view local times or setup timezone preferences in your user account.

Time Position Orientation Groundspeed Altitude Reporting Facility
EDT Latitude Longitude Course Direction KTS MPH feet Rate Location/Type
01:04PM 44.6994 -75.3636 78° East 160 184 4,200  Level Boston Center
01:06PM 44.7217 -75.2990 64° Northeast  Level FlightAware Approximate
01:07PM 44.7047 -75.2267 156° South 120 138 6,400  Level Boston Center
01:08PM 44.7081 -75.1800 84° East 114 131 7,000 300 Climbing Boston Center
01:09PM 44.7133 -75.1275 94° East 119 137 7,000  Level Boston Center
01:10PM 44.7053 -75.1172 94° East  Level FlightAware Approximate
01:11PM 44.7061 -74.9900 94° East 162 186 7,000  Level Boston Center
01:12PM 44.6692 -74.9592 149° Southeast 146 168 7,000  Level Boston Center
01:13PM 44.6249 -74.9527 156° South  Level FlightAware Approximate
01:14PM 44.6158 -74.9278 157° South 158 182 7,100  Level Boston Center
01:16PM 44.5294 -74.8744 156° South 168 193 7,000  Descending Boston Center
01:17PM 44.4861 -74.8494 158° South 168 193 7,100  Climbing Boston Center
01:18PM 44.4408 -74.8244 158° South 173 199 7,100  Level Boston Center
01:19PM 44.3978 -74.7964 155° Southeast 173 199 7,100 -60 Level Boston Center
01:20PM 44.3647 -74.7778 158° South 173 199 7,000 -60 Descending Boston Center
01:21PM 44.3175 -74.7469 155° Southeast 173 199 7,000  Level Boston Center
01:22PM 44.2742 -74.7219 158° South 173 199 7,000  Level Boston Center
01:23PM 44.2308 -74.6942 155° Southeast 173 199 7,000  Level Boston Center
01:24PM 44.1878 -74.6667 155° Southeast 173 199 7,000  Level Boston Center
01:25PM 44.1444 -74.6417 158° South 173 199 7,000  Level Boston Center
01:26PM 44.1033 -74.6172 157° South 173 199 7,000  Level Boston Center
01:27PM 44.0578 -74.5894 156° South 173 199 7,100  Climbing Boston Center
01:28PM 44.0167 -74.5619 154° Southeast 173 199 7,100  Level Boston Center
01:29PM 43.9714 -74.5372 159° South 173 199 7,100  Level Boston Center
01:30PM 43.9300 -74.5128 157° South 173 199 7,100  Level Boston Center
01:31PM 43.8867 -74.4853 155° Southeast 173 199 7,100  Level Boston Center
01:32PM 43.8436 -74.4581 155° Southeast 173 199 7,100  Level Boston Center
01:33PM 43.7961 -74.4306 157° South 173 199 7,100  Level Boston Center
01:34PM 43.7528 -74.4033 156° South 173 199 7,100  Level Boston Center
01:35PM 43.7114 -74.3817 159° South 168 193 7,100  Level Boston Center
01:36PM 43.6703 -74.3547 155° Southeast 168 193 7,100  Level Boston Center
01:37PM 43.6311 -74.3333 158° South 168 193 7,100  Level Boston Center
01:38PM 43.5878 -74.3061 156° South 168 193 7,100  Level Boston Center
01:39PM 43.5567 -74.2822 151° Southeast 166 191 7,100  Level Boston Center
01:39PM 43.5278 -74.2642 156° South 162 186 7,100  Level Boston Center
01:40PM 43.5031 -74.2578 169° South 173 199 7,100  Level Boston Center
01:41PM 43.4639 -74.2308 153° Southeast 168 193 7,100  Level Boston Center
01:42PM 43.4203 -74.2153 165° South 168 193 7,100  Level Boston Center
01:43PM 43.3742 -74.2253 189° South 163 188 7,100  Level Boston Center
01:43PM 43.3472 -74.2244 179° South 163 188 7,100  Level Boston Center
01:44PM 43.3058 -74.2006 157° South 166 191 7,100 -180 Level Boston Center
01:46PM 43.2506 -74.1419 142° Southeast 172 198 6,700 -420 Descending Boston Center
01:47PM 43.2136 -74.1039 143° Southeast 172 198 6,200 -660 Descending Boston Center
01:47PM 43.1847 -74.0858 155° Southeast 189 217 5,700 -780 Descending Boston Center
01:48PM 43.1414 -74.0533 151° Southeast 189 217 5,100 -420 Descending Boston Center
01:49PM 43.1125 -74.0328 153° Southeast 177 204 5,100 -300 Level Boston Center
01:50PM 43.0753 -74.0061 152° Southeast 177 204 4,600 -600 Descending Boston Center
01:51PM 43.0483 -73.9914 158° South 173 199 4,200 -900 Descending Boston Center
01:51PM 43.0236 -73.9708 149° Southeast 177 204 3,700 -900 Descending Boston Center
01:52PM 43.0008 -73.9561 155° Southeast 187 215 3,300 -660 Descending Boston Center
01:53PM 42.9661 -73.9097 136° Southeast 174 200 2,700 -600 Descending Boston Center
01:54PM 42.9439 -73.8553 119° Southeast 171 197 2,100 -420 Descending Boston Center
01:55PM 42.9111 -73.8150 138° Southeast 165 190 1,900 -240 Descending Boston Center
01:57PM 42.8172 -73.8100 178° South 168 193 1,500 -480 Descending Boston Center
01:58PM 42.7611 -73.8089 179° South 161 185 500 -900 Descending Boston Center
02:00PM 42.7491 -73.8020 160° South  Level Estimated
02:07PM 42.7491 -73.8020 160° South  Level Estimated
02:08PM 42.7491 -73.8020 160° South  Level Estimated